createdAt,value
2019-03-28T00:00:07.074Z,82.47
2019-03-28T00:02:38.380Z,82.54
2019-03-28T00:05:09.859Z,82.65
2019-03-28T00:07:41.127Z,82.90
2019-03-28T00:10:12.414Z,83.34
2019-03-28T00:12:43.678Z,83.30
2019-03-28T00:15:14.966Z,83.42
2019-03-28T00:17:46.594Z,83.80
2019-03-28T00:20:17.863Z,84.01
2019-03-28T00:22:57.288Z,84.58
2019-03-28T00:25:28.541Z,84.67
2019-03-28T00:27:59.970Z,84.76
2019-03-28T00:30:31.275Z,85.01
2019-03-28T00:33:02.564Z,84.95
2019-03-28T00:35:34.061Z,85.32
2019-03-28T00:38:05.393Z,85.47
2019-03-28T00:40:36.705Z,85.50
2019-03-28T00:43:08.039Z,85.70
2019-03-28T00:45:39.358Z,85.51
2019-03-28T00:48:10.929Z,85.59
2019-03-28T00:50:42.302Z,85.54
2019-03-28T00:53:13.946Z,85.65
2019-03-28T00:55:45.263Z,85.70
2019-03-28T00:58:16.435Z,85.84
2019-03-28T01:00:47.789Z,85.90
2019-03-28T01:03:19.146Z,85.97
2019-03-28T01:05:50.722Z,85.63
2019-03-28T01:08:23.075Z,85.57
2019-03-28T01:10:54.564Z,86.01
2019-03-28T01:13:26.031Z,85.74
2019-03-28T01:15:57.443Z,85.75
2019-03-28T01:18:29.274Z,85.82
2019-03-28T01:21:00.514Z,85.96
2019-03-28T01:23:33.077Z,85.85
2019-03-28T01:26:04.613Z,85.77
2019-03-28T01:28:35.865Z,85.46
2019-03-28T01:31:07.154Z,85.70
2019-03-28T01:33:38.525Z,85.77
2019-03-28T01:36:10.539Z,85.81
2019-03-28T01:38:41.835Z,86.06
2019-03-28T01:41:13.619Z,85.71
2019-03-28T01:43:44.787Z,85.80
2019-03-28T01:46:16.434Z,85.65
2019-03-28T01:48:47.762Z,85.93
2019-03-28T01:51:19.017Z,85.83
2019-03-28T01:53:50.482Z,86.11
2019-03-28T01:56:25.044Z,86.34
2019-03-28T01:58:55.804Z,86.56
2019-03-28T02:01:27.109Z,86.52
2019-03-28T02:03:58.634Z,86.52
2019-03-28T02:06:29.891Z,86.66
2019-03-28T02:09:01.203Z,86.64
2019-03-28T02:11:32.479Z,86.77
2019-03-28T02:14:03.793Z,86.80
2019-03-28T02:16:35.121Z,86.58
2019-03-28T02:19:06.385Z,86.91
2019-03-28T02:21:38.520Z,86.53
2019-03-28T02:24:09.813Z,86.44
2019-03-28T02:26:41.106Z,86.75
2019-03-28T02:29:12.392Z,86.50
2019-03-28T02:31:43.817Z,86.30
2019-03-28T02:34:15.164Z,86.13
2019-03-28T02:36:46.464Z,86.35
2019-03-28T02:39:17.805Z,86.09
2019-03-28T02:41:49.311Z,86.02
2019-03-28T02:44:20.853Z,86.04
2019-03-28T02:46:52.407Z,85.94
2019-03-28T02:49:23.965Z,86.06
2019-03-28T02:51:55.953Z,85.66
2019-03-28T02:54:27.532Z,85.76
2019-03-28T02:56:58.784Z,85.79
2019-03-28T02:59:30.315Z,85.71
2019-03-28T03:02:01.546Z,85.92
2019-03-28T03:04:32.808Z,85.77
2019-03-28T03:07:04.100Z,86.08
2019-03-28T03:09:35.533Z,85.87
2019-03-28T03:12:06.862Z,85.70
2019-03-28T03:14:38.115Z,85.90
2019-03-28T03:17:09.420Z,85.78
2019-03-28T03:19:40.825Z,85.87
2019-03-28T03:22:12.065Z,85.93
2019-03-28T03:24:43.875Z,85.92
2019-03-28T03:27:17.332Z,85.53
2019-03-28T03:29:48.887Z,85.74
2019-03-28T03:32:20.229Z,86.29
2019-03-28T03:34:51.489Z,85.57
2019-03-28T03:37:22.783Z,85.68
2019-03-28T03:39:54.080Z,85.57
2019-03-28T03:42:26.054Z,85.49
2019-03-28T03:44:57.562Z,85.16
2019-03-28T03:47:28.870Z,85.57
2019-03-28T03:50:00.460Z,85.51
2019-03-28T03:52:31.809Z,85.11
2019-03-28T03:55:03.174Z,85.17
2019-03-28T03:57:34.342Z,84.78
2019-03-28T04:00:06.329Z,84.77
2019-03-28T04:02:37.706Z,84.66
2019-03-28T04:05:09.173Z,84.58
2019-03-28T04:07:40.350Z,84.57
2019-03-28T04:10:11.926Z,84.56
2019-03-28T04:12:43.176Z,84.33
2019-03-28T04:15:14.579Z,84.42
2019-03-28T04:17:46.034Z,84.49
2019-03-28T04:20:17.301Z,84.43
2019-03-28T04:22:48.895Z,84.54
2019-03-28T04:25:21.810Z,84.57
2019-03-28T04:27:53.349Z,84.95
2019-03-28T04:30:24.976Z,85.22
2019-03-28T04:32:56.336Z,85.06
2019-03-28T04:35:27.603Z,84.78
2019-03-28T04:37:58.942Z,84.76
2019-03-28T04:40:30.261Z,84.56
2019-03-28T04:43:02.159Z,84.73
2019-03-28T04:45:33.474Z,84.55
2019-03-28T04:48:04.859Z,84.74
2019-03-28T04:50:36.815Z,84.81
2019-03-28T04:53:08.200Z,84.64
2019-03-28T04:55:39.568Z,84.72
2019-03-28T04:58:11.199Z,84.77
2019-03-28T05:00:42.483Z,84.69
2019-03-28T05:03:14.169Z,84.92
2019-03-28T05:05:46.114Z,84.96
2019-03-28T05:08:18.186Z,85.07
2019-03-28T05:10:49.589Z,85.11
2019-03-28T05:13:20.803Z,84.84
2019-03-28T05:15:52.125Z,84.91
2019-03-28T05:18:23.695Z,84.91
2019-03-28T05:20:55.232Z,85.06
2019-03-28T05:23:26.519Z,85.08
2019-03-28T05:25:57.817Z,84.83
2019-03-28T05:28:29.091Z,84.92
2019-03-28T05:31:00.451Z,84.82
2019-03-28T05:33:31.736Z,84.72
2019-03-28T05:36:04.437Z,84.76
2019-03-28T05:38:35.987Z,84.66
2019-03-28T05:41:07.360Z,84.62
2019-03-28T05:43:39.023Z,83.78
2019-03-28T05:46:10.359Z,83.56
2019-03-28T05:48:43.335Z,83.76
2019-03-28T05:51:14.675Z,83.21
2019-03-28T05:53:46.540Z,82.13
2019-03-28T05:56:18.432Z,81.81
2019-03-28T05:58:49.734Z,82.93
2019-03-28T06:01:21.015Z,82.21
2019-03-28T06:03:53.007Z,82.73
2019-03-28T06:06:24.282Z,82.37
2019-03-28T06:08:55.575Z,81.96
2019-03-28T06:11:26.918Z,81.34
2019-03-28T06:13:58.233Z,81.29
2019-03-28T06:16:29.684Z,81.72
2019-03-28T06:19:01.015Z,81.92
2019-03-28T06:21:32.330Z,81.70
2019-03-28T06:24:03.916Z,81.84
2019-03-28T06:26:35.706Z,82.89
2019-03-28T06:29:08.595Z,83.06
2019-03-28T06:31:40.051Z,83.51
2019-03-28T06:34:11.386Z,85.05
2019-03-28T06:36:42.673Z,82.06
2019-03-28T06:39:14.229Z,82.20
2019-03-28T06:41:45.591Z,83.16
2019-03-28T06:44:16.873Z,83.68
2019-03-28T06:46:48.240Z,84.67
2019-03-28T06:49:19.598Z,84.90
2019-03-28T06:51:50.908Z,85.16
2019-03-28T06:54:24.269Z,85.47
2019-03-28T06:56:55.312Z,84.61
2019-03-28T06:59:36.572Z,84.70
2019-03-28T07:01:59.933Z,84.96
2019-03-28T07:04:31.263Z,84.39
2019-03-28T07:07:02.902Z,84.07
2019-03-28T07:09:34.457Z,83.96
2019-03-28T07:12:06.687Z,84.35
2019-03-28T07:14:37.957Z,84.25
2019-03-28T07:17:09.231Z,83.79
2019-03-28T07:19:40.773Z,83.07
2019-03-28T07:22:12.412Z,82.94
2019-03-28T07:24:43.977Z,82.65
2019-03-28T07:27:15.833Z,82.88
2019-03-28T07:29:51.257Z,82.73
2019-03-28T07:32:20.238Z,82.67
2019-03-28T07:34:51.828Z,82.26
2019-03-28T07:37:23.377Z,81.80
2019-03-28T07:39:54.925Z,81.60
2019-03-28T07:42:26.666Z,81.45
2019-03-28T07:44:58.217Z,81.33
2019-03-28T07:47:29.606Z,81.49
2019-03-28T07:50:01.041Z,80.72
2019-03-28T07:52:32.529Z,80.67
2019-03-28T07:55:03.855Z,81.16
2019-03-28T07:57:35.206Z,81.06
2019-03-28T08:00:08.522Z,80.80
2019-03-28T08:02:39.780Z,80.80
2019-03-28T08:05:11.789Z,80.69
2019-03-28T08:07:45.354Z,80.84
2019-03-28T08:10:16.902Z,80.84
2019-03-28T08:12:48.196Z,80.50
2019-03-28T08:15:19.904Z,79.81
2019-03-28T08:17:51.518Z,80.39
2019-03-28T08:20:23.011Z,80.20
2019-03-28T08:22:54.319Z,79.41
2019-03-28T08:25:25.973Z,78.44
2019-03-28T08:27:57.854Z,78.62
2019-03-28T08:30:39.848Z,77.79
2019-03-28T08:33:11.506Z,78.08
2019-03-28T08:35:43.192Z,77.66
2019-03-28T08:38:15.487Z,77.56
2019-03-28T08:40:47.284Z,77.17
2019-03-28T08:43:18.873Z,77.31
2019-03-28T08:45:51.360Z,77.41
2019-03-28T08:48:22.877Z,76.85
2019-03-28T08:50:55.030Z,76.87
2019-03-28T08:53:26.380Z,76.89
2019-03-28T08:55:57.716Z,77.30
2019-03-28T08:58:29.280Z,77.00
2019-03-28T09:01:00.862Z,77.32
2019-03-28T09:03:32.255Z,76.54
2019-03-28T09:06:03.916Z,76.26
2019-03-28T09:08:36.482Z,76.41
2019-03-28T09:11:07.859Z,75.37
2019-03-28T09:13:39.473Z,75.78
2019-03-28T09:16:10.910Z,76.10
2019-03-28T09:18:42.661Z,75.00
2019-03-28T09:21:14.300Z,74.93
2019-03-28T09:23:45.787Z,75.58
2019-03-28T09:26:17.176Z,75.55
2019-03-28T09:28:48.415Z,75.22
2019-03-28T09:31:20.543Z,74.79
2019-03-28T09:33:51.998Z,73.83
2019-03-28T09:36:23.847Z,73.83
2019-03-28T09:38:55.401Z,74.14
2019-03-28T09:41:26.774Z,73.91
2019-03-28T09:43:58.050Z,73.78
2019-03-28T09:46:30.039Z,72.65
2019-03-28T09:49:01.847Z,72.05
2019-03-28T09:51:35.317Z,72.13
2019-03-28T09:54:07.170Z,70.41
2019-03-28T09:56:38.875Z,70.96
2019-03-28T09:59:10.854Z,68.99
2019-03-28T10:01:42.267Z,69.79
2019-03-28T10:04:13.718Z,69.24
2019-03-28T10:06:45.424Z,67.97
2019-03-28T10:09:17.224Z,67.55
2019-03-28T10:11:48.826Z,68.96
2019-03-28T10:14:20.836Z,66.68
2019-03-28T10:16:52.574Z,65.66
2019-03-28T10:19:24.084Z,66.09
2019-03-28T10:21:55.676Z,65.61
2019-03-28T10:24:27.073Z,65.08
2019-03-28T10:26:58.737Z,65.11
2019-03-28T10:29:30.236Z,65.11
2019-03-28T10:32:01.801Z,64.58
2019-03-28T10:34:33.552Z,64.30
2019-03-28T10:37:05.326Z,64.76
2019-03-28T10:39:37.078Z,63.75
2019-03-28T10:42:08.557Z,62.82
2019-03-28T10:44:40.515Z,62.13
2019-03-28T10:47:12.205Z,61.35
2019-03-28T10:49:43.772Z,59.94
2019-03-28T10:52:15.289Z,60.45
2019-03-28T10:54:46.981Z,60.31
2019-03-28T10:57:29.516Z,60.03
2019-03-28T10:59:51.709Z,60.79
2019-03-28T11:02:23.779Z,58.33
2019-03-28T11:04:55.293Z,58.94
2019-03-28T11:07:26.879Z,58.34
2019-03-28T11:09:58.277Z,58.60
2019-03-28T11:12:29.843Z,55.98
2019-03-28T11:15:01.209Z,55.80
2019-03-28T11:17:32.776Z,54.27
2019-03-28T11:20:04.548Z,52.71
2019-03-28T11:22:35.808Z,53.45
2019-03-28T11:25:08.105Z,52.82
2019-03-28T11:27:39.475Z,52.92
2019-03-28T11:30:12.110Z,53.00
2019-03-28T11:32:44.883Z,53.01
2019-03-28T11:35:16.299Z,52.49
2019-03-28T11:37:47.668Z,52.88
2019-03-28T11:40:18.876Z,53.51
2019-03-28T11:42:52.113Z,53.33
2019-03-28T11:45:26.758Z,52.26
2019-03-28T11:47:56.429Z,50.85
2019-03-28T11:50:27.840Z,49.63
2019-03-28T11:52:59.352Z,49.68
2019-03-28T11:55:30.626Z,50.25
2019-03-28T11:58:01.927Z,52.26
2019-03-28T12:00:33.591Z,53.32
2019-03-28T12:03:04.915Z,53.73
2019-03-28T12:05:36.214Z,54.46
2019-03-28T12:08:07.496Z,52.80
2019-03-28T12:10:38.905Z,51.16
2019-03-28T12:13:10.580Z,51.94
2019-03-28T12:15:41.857Z,51.59
2019-03-28T12:18:13.309Z,52.38
2019-03-28T12:20:45.675Z,53.55
2019-03-28T12:23:16.934Z,52.21
2019-03-28T12:25:48.189Z,50.73
2019-03-28T12:28:19.815Z,51.83
2019-03-28T12:30:51.041Z,51.55
2019-03-28T12:33:22.368Z,50.94
2019-03-28T12:35:53.785Z,51.26
2019-03-28T12:38:25.538Z,51.17
2019-03-28T12:40:56.793Z,49.72
2019-03-28T12:43:28.099Z,50.26
2019-03-28T12:45:59.592Z,48.35
2019-03-28T12:48:31.619Z,47.75
2019-03-28T12:51:03.148Z,47.65
2019-03-28T12:53:34.427Z,47.16
2019-03-28T12:56:05.685Z,47.67
2019-03-28T12:58:37.276Z,48.33
2019-03-28T13:01:08.784Z,48.41
2019-03-28T13:03:45.751Z,46.59
2019-03-28T13:06:13.115Z,45.87
2019-03-28T13:08:44.301Z,46.70
2019-03-28T13:11:15.677Z,46.06
2019-03-28T13:13:47.248Z,45.29
2019-03-28T13:16:18.508Z,47.66
2019-03-28T13:18:49.698Z,48.30
2019-03-28T13:21:21.008Z,48.62
2019-03-28T13:23:52.252Z,49.31
2019-03-28T13:26:23.796Z,50.15
2019-03-28T13:28:55.393Z,50.50
2019-03-28T13:31:27.213Z,51.74
2019-03-28T13:33:58.741Z,51.37
2019-03-28T13:36:30.028Z,50.82
2019-03-28T13:39:01.446Z,52.01
2019-03-28T13:41:32.702Z,52.21
2019-03-28T13:44:04.039Z,52.80
2019-03-28T13:46:35.589Z,52.75
2019-03-28T13:49:07.238Z,53.08
2019-03-28T13:51:38.790Z,53.05
2019-03-28T13:54:09.978Z,53.35
2019-03-28T13:56:41.218Z,53.57
2019-03-28T13:59:13.090Z,54.02
2019-03-28T14:01:44.279Z,54.26
2019-03-28T14:04:15.798Z,53.55
2019-03-28T14:06:47.445Z,53.87
2019-03-28T14:09:18.720Z,52.97
2019-03-28T14:11:49.986Z,54.48
2019-03-28T14:14:22.534Z,55.39
2019-03-28T14:16:54.045Z,56.10
2019-03-28T14:19:25.308Z,56.52
2019-03-28T14:21:56.608Z,57.06
2019-03-28T14:24:28.151Z,56.82
2019-03-28T14:26:59.454Z,55.47
2019-03-28T14:29:30.682Z,56.04
2019-03-28T14:32:02.083Z,56.54
2019-03-28T14:34:33.412Z,56.84
2019-03-28T14:37:04.668Z,56.49
2019-03-28T14:39:36.123Z,56.89
2019-03-28T14:42:07.456Z,55.89
2019-03-28T14:44:39.212Z,57.10
2019-03-28T14:47:10.867Z,57.03
2019-03-28T14:49:42.168Z,55.89
2019-03-28T14:52:13.450Z,56.36
2019-03-28T14:54:45.211Z,56.21
2019-03-28T14:57:17.710Z,56.36
2019-03-28T14:59:49.958Z,56.85
2019-03-28T15:02:21.534Z,56.95
2019-03-28T15:04:53.155Z,57.01
2019-03-28T15:07:25.566Z,58.57
2019-03-28T15:09:57.188Z,57.36
2019-03-28T15:12:28.498Z,57.01
2019-03-28T15:14:59.683Z,57.00
2019-03-28T15:17:30.928Z,57.01
2019-03-28T15:20:02.223Z,57.49
2019-03-28T15:22:33.474Z,56.99
2019-03-28T15:25:04.765Z,56.35
2019-03-28T15:27:36.335Z,57.04
2019-03-28T15:30:08.278Z,57.30
2019-03-28T15:32:39.612Z,56.51
2019-03-28T15:35:11.155Z,56.70
2019-03-28T15:37:42.697Z,56.59
2019-03-28T15:40:14.678Z,56.52
2019-03-28T15:42:45.970Z,57.65
2019-03-28T15:45:17.503Z,57.05
2019-03-28T15:47:51.908Z,57.04
2019-03-28T15:50:21.887Z,57.06
2019-03-28T15:52:53.487Z,58.08
2019-03-28T15:55:24.847Z,58.09
2019-03-28T15:57:56.529Z,58.42
2019-03-28T16:00:29.252Z,58.84
2019-03-28T16:03:00.638Z,59.20
2019-03-28T16:05:32.204Z,58.77
2019-03-28T16:08:03.742Z,59.43
2019-03-28T16:10:35.008Z,59.31
2019-03-28T16:13:06.400Z,59.40
2019-03-28T16:15:37.916Z,59.47
2019-03-28T16:18:09.424Z,58.74
2019-03-28T16:20:41.373Z,58.35
2019-03-28T16:23:14.081Z,57.94
2019-03-28T16:25:45.327Z,58.35
2019-03-28T16:28:16.651Z,58.07
2019-03-28T16:30:48.173Z,58.55
2019-03-28T16:33:19.453Z,58.57
2019-03-28T16:35:50.804Z,58.65
2019-03-28T16:38:22.085Z,59.85
2019-03-28T16:40:53.327Z,59.92
2019-03-28T16:43:25.921Z,60.23
2019-03-28T16:45:57.223Z,59.23
2019-03-28T16:48:28.439Z,59.23
2019-03-28T16:50:59.789Z,59.53
2019-03-28T16:53:31.110Z,60.06
2019-03-28T16:56:02.384Z,58.90
2019-03-28T16:58:33.938Z,59.80
2019-03-28T17:01:05.199Z,60.79
2019-03-28T17:03:36.723Z,60.25
2019-03-28T17:06:08.039Z,60.53
2019-03-28T17:08:40.564Z,60.06
2019-03-28T17:11:13.376Z,60.41
2019-03-28T17:13:46.296Z,60.14
2019-03-28T17:16:18.057Z,60.82
2019-03-28T17:18:49.321Z,61.09
2019-03-28T17:21:23.247Z,60.56
2019-03-28T17:23:53.880Z,60.94
2019-03-28T17:26:25.269Z,61.25
2019-03-28T17:28:57.846Z,60.78
2019-03-28T17:31:29.055Z,61.17
2019-03-28T17:34:00.713Z,61.50
2019-03-28T17:36:32.079Z,61.21
2019-03-28T17:39:04.522Z,60.84
2019-03-28T17:41:35.813Z,60.00
2019-03-28T17:44:07.902Z,60.20
2019-03-28T17:46:40.105Z,60.23
2019-03-28T17:49:11.563Z,60.50
2019-03-28T17:51:43.172Z,60.63
2019-03-28T17:54:15.377Z,60.37
2019-03-28T17:56:47.685Z,61.13
2019-03-28T17:59:19.271Z,61.56
2019-03-28T18:01:50.815Z,61.07
2019-03-28T18:04:23.441Z,61.40
2019-03-28T18:06:55.047Z,60.98
2019-03-28T18:09:27.100Z,61.03
2019-03-28T18:11:58.599Z,61.52
2019-03-28T18:14:30.384Z,61.57
2019-03-28T18:17:01.820Z,61.87
2019-03-28T18:19:33.228Z,61.33
2019-03-28T18:22:04.766Z,61.76
2019-03-28T18:24:36.335Z,62.16
2019-03-28T18:27:07.915Z,61.55
2019-03-28T18:29:39.493Z,61.09
2019-03-28T18:32:11.322Z,61.05
2019-03-28T18:34:42.935Z,61.06
2019-03-28T18:37:16.820Z,61.44
2019-03-28T18:39:49.023Z,61.81
2019-03-28T18:42:20.551Z,62.19
2019-03-28T18:44:52.545Z,62.16
2019-03-28T18:47:25.189Z,62.79
2019-03-28T18:49:56.788Z,62.62
2019-03-28T18:52:28.840Z,62.54
2019-03-28T18:55:00.656Z,62.11
2019-03-28T18:57:32.643Z,62.16
2019-03-28T19:00:04.691Z,62.02
2019-03-28T19:02:36.646Z,62.27
2019-03-28T19:05:19.204Z,62.80
2019-03-28T19:07:42.498Z,62.54
2019-03-28T19:10:16.079Z,62.51
2019-03-28T19:12:47.943Z,63.20
2019-03-28T19:15:20.036Z,63.37
2019-03-28T19:17:51.730Z,63.99
2019-03-28T19:20:23.527Z,64.09
2019-03-28T19:22:55.226Z,63.30
2019-03-28T19:25:27.375Z,63.89
2019-03-28T19:27:58.779Z,63.29
2019-03-28T19:30:35.831Z,63.56
2019-03-28T19:33:07.448Z,64.09
